x

Isle Of Shoals, Nh (iosn3) Weather Station

8:00 - Sun 1st Feb 2015 All times are EST. -5 hours from GMT.

  • Wind
    28mph, 31mph gusts
  • Air Temp 16°f
  • Sea Pressure 1018.2mb
  • Isle Of Shoals, Nh
  • Isle Of Shoals, Nh

More Historic Weather Station data

Upgrade to MSW Pro to gain access to the past 30 days of data for over 8000 Wavebouys and Weather Stations around the globe.

Join Pro

Comparision Forecast

View Surf forecast
   
dim. 02/01 8:00 28 31 mph 1018.2mb 16f
7:00 28 33 mph 1017.6mb 16f
6:00 28 30 mph 1017mb 15f
5:00 24 29 mph 1016.9mb 14f
4:00 31 34 mph 1015.7mb 14f
3:00 32 34 mph 1015mb 14f
2:00 33 38 mph 1013.7mb 13f
1:00 28 31 mph 1014.1mb 14f
12:00 29 33 mph 1013.4mb 14f
sam. 01/31 11:00 30 34 mph 1013.1mb 14f
10:00 34 40 mph 1012.8mb 14f
9:00 38 44 mph 1012.4mb 14f
8:00 37 39 mph 1012mb 15f
7:00 40 44 mph 1011.6mb 15f
6:00 39 45 mph 1011.1mb 15f
5:00 39 45 mph 1010.1mb 17f
4:00 39 44 mph 1008.7mb 18f
3:00 33 39 mph 1007.8mb 19f
2:00 32 39 mph 1007.2mb 19f
1:00 32 37 mph 1006.6mb 19f
12:00 30 36 mph 1007.2mb 16f
11:00 30 33 mph 1007.3mb 13f
10:00 37 41 mph 1006.7mb 11f
9:00 37 43 mph 1006.8mb 11f
8:00 36 39 mph 1006.7mb 11f
7:00 38 44 mph 1005.7mb 13f
6:00 34 40 mph 1005.3mb 14f
5:00 36 41 mph 1004.6mb 16f
4:00 37 48 mph 1003.9mb 16f
3:00 41 46 mph 1003mb 17f
2:00 36 40 mph 1003.6mb 18f
1:00 36 38 mph 1003.6mb 18f
12:00 32 37 mph 1003.9mb 19f
ven. 01/30 11:00 31 34 mph 1004.6mb 21f
10:00 30 34 mph 1004.7mb 23f
9:00 32 37 mph 1004.5mb 26f
8:00 30 33 mph 1004.5mb 29f
7:00 25 29 mph 1004.7mb 31f
6:00 22 25 mph 1005mb 31f
5:00 17 18 mph 1005.3mb 31f
4:00 15 17 mph 1005.2mb 31f
3:00 11 13 mph 1005.2mb 30f
2:00 9 11 mph 1005.2mb 30f
1:00 9 10 mph 1006.1mb 30f
12:00 8 9 mph 1006.7mb 31f
11:00 7
mph
1007.6mb 33f
10:00 8 9 mph 1008.4mb 33f
9:00 10 13 mph 1008.8mb 35f
8:00 22 24 mph 1009.3mb 37f
7:00 22 23 mph 1010mb 35f
6:00 20 22 mph 1010.6mb 35f
5:00 20 22 mph 1011.5mb 35f
4:00 18 20 mph 1012.3mb 33f
3:00 17 18 mph 1013.7mb 33f
2:00 15 18 mph 1014.6mb 32f
1:00 17 18 mph 1016.2mb 32f
12:00 16 17 mph 1017.1mb 32f
jeu. 01/29 11:00 20 21 mph 1018.2mb 32f
10:00 15 17 mph 1017.6mb 34f
9:00 15 16 mph 1018.9mb 33f
8:00 10 11 mph 1019.8mb 32f
7:00 3 5 mph 1020.5mb 30f
6:00  -  mph 1020.9mb 29f
5:00  -  1 mph 1021.3mb 28f
4:00  -  2 mph 1021.6mb 30f
3:00 1 2 mph 1022mb 29f
2:00 1 2 mph 1023mb 28f
1:00 2 3 mph 1023.4mb 27f
12:00 5 7 mph 1024.4mb 25f
11:00 9 10 mph 1025.4mb 24f
10:00 7 8 mph 1026.2mb 22f
9:00 8 10 mph 1025.6mb 21f
8:00 9 11 mph 1025.7mb 20f
7:00 9 10 mph 1024.9mb 20f
6:00 14 15 mph 1024.7mb 20f
5:00 16
mph
1024.8mb 18f
4:00 10 11 mph 1024.1mb 19f
3:00 13 14 mph 1024mb 19f
2:00 14 16 mph 1023.8mb 19f
1:00 16 18 mph 1022.9mb 19f
12:00 16 17 mph 1022.5mb 20f
mer. 01/28 11:00 13 15 mph 1022mb 20f
10:00 15 17 mph 1021.5mb 21f
9:00 20 22 mph 1020.6mb 23f
8:00 17 20 mph 1019.8mb 23f
7:00 18 21 mph 1018.8mb 23f
6:00 22 25 mph 1017.3mb 23f
5:00 22 23 mph 1016mb 24f
4:00 22 24 mph 1014.9mb 25f
3:00 18 21 mph 1014.2mb 24f